sensor_id;sensor_type;location;lat;lon;timestamp;P1;durP1;ratioP1;P2;durP2;ratioP2
14768;SDS011;7476;49.404;11.152;2023-03-01T00:01:36;18.80;;;10.27;;
14768;SDS011;7476;49.404;11.152;2023-03-01T00:04:03;18.77;;;10.47;;
14768;SDS011;7476;49.404;11.152;2023-03-01T00:06:30;20.20;;;11.63;;
14768;SDS011;7476;49.404;11.152;2023-03-01T00:08:58;19.67;;;11.87;;
14768;SDS011;7476;49.404;11.152;2023-03-01T00:11:25;20.20;;;11.07;;
14768;SDS011;7476;49.404;11.152;2023-03-01T00:13:54;17.40;;;11.13;;
14768;SDS011;7476;49.404;11.152;2023-03-01T00:16:22;21.30;;;11.73;;
14768;SDS011;7476;49.404;11.152;2023-03-01T00:18:50;17.53;;;11.27;;
14768;SDS011;7476;49.404;11.152;2023-03-01T00:21:18;17.83;;;10.87;;
14768;SDS011;7476;49.404;11.152;2023-03-01T00:23:46;20.77;;;11.10;;
14768;SDS011;7476;49.404;11.152;2023-03-01T00:26:16;20.47;;;11.60;;
14768;SDS011;7476;49.404;11.152;2023-03-01T00:28:44;20.13;;;11.13;;
14768;SDS011;7476;49.404;11.152;2023-03-01T00:31:12;19.47;;;10.83;;
14768;SDS011;7476;49.404;11.152;2023-03-01T00:33:40;20.67;;;10.83;;
14768;SDS011;7476;49.404;11.152;2023-03-01T00:36:07;18.27;;;10.17;;
14768;SDS011;7476;49.404;11.152;2023-03-01T00:38:35;22.47;;;10.70;;
14768;SDS011;7476;49.404;11.152;2023-03-01T00:41:03;19.27;;;11.43;;
14768;SDS011;7476;49.404;11.152;2023-03-01T00:43:32;19.10;;;11.37;;
14768;SDS011;7476;49.404;11.152;2023-03-01T00:46:01;19.40;;;11.03;;
14768;SDS011;7476;49.404;11.152;2023-03-01T00:48:28;20.93;;;10.07;;
14768;SDS011;7476;49.404;11.152;2023-03-01T00:50:55;19.43;;;10.57;;
14768;SDS011;7476;49.404;11.152;2023-03-01T00:53:21;19.43;;;11.00;;
14768;SDS011;7476;49.404;11.152;2023-03-01T00:55:48;19.70;;;10.73;;
14768;SDS011;7476;49.404;11.152;2023-03-01T00:58:15;20.20;;;11.20;;
14768;SDS011;7476;49.404;11.152;2023-03-01T01:00:43;21.80;;;10.87;;
14768;SDS011;7476;49.404;11.152;2023-03-01T01:03:09;19.30;;;11.10;;
14768;SDS011;7476;49.404;11.152;2023-03-01T01:05:36;20.07;;;10.73;;
14768;SDS011;7476;49.404;11.152;2023-03-01T01:08:03;20.30;;;10.80;;
14768;SDS011;7476;49.404;11.152;2023-03-01T01:10:29;17.23;;;10.30;;
14768;SDS011;7476;49.404;11.152;2023-03-01T01:12:56;18.83;;;11.17;;
14768;SDS011;7476;49.404;11.152;2023-03-01T01:15:23;18.80;;;10.87;;
14768;SDS011;7476;49.404;11.152;2023-03-01T01:17:51;21.90;;;11.47;;
14768;SDS011;7476;49.404;11.152;2023-03-01T01:20:18;22.73;;;11.90;;
14768;SDS011;7476;49.404;11.152;2023-03-01T01:22:44;23.17;;;10.77;;
14768;SDS011;7476;49.404;11.152;2023-03-01T01:25:11;20.07;;;11.40;;
14768;SDS011;7476;49.404;11.152;2023-03-01T01:27:38;21.93;;;11.43;;
14768;SDS011;7476;49.404;11.152;2023-03-01T01:30:05;23.30;;;11.30;;
14768;SDS011;7476;49.404;11.152;2023-03-01T01:32:32;19.73;;;11.03;;
14768;SDS011;7476;49.404;11.152;2023-03-01T01:35:00;24.30;;;12.00;;
14768;SDS011;7476;49.404;11.152;2023-03-01T01:37:27;26.47;;;12.30;;
14768;SDS011;7476;49.404;11.152;2023-03-01T01:39:56;23.33;;;12.47;;
14768;SDS011;7476;49.404;11.152;2023-03-01T01:42:23;23.67;;;12.20;;
14768;SDS011;7476;49.404;11.152;2023-03-01T01:47:52;24.10;;;13.17;;
14768;SDS011;7476;49.404;11.152;2023-03-01T01:50:22;24.10;;;12.57;;
14768;SDS011;7476;49.404;11.152;2023-03-01T01:52:50;19.07;;;11.73;;
14768;SDS011;7476;49.404;11.152;2023-03-01T01:55:19;26.43;;;14.40;;
14768;SDS011;7476;49.404;11.152;2023-03-01T01:57:50;22.97;;;12.57;;
14768;SDS011;7476;49.404;11.152;2023-03-01T02:00:20;25.53;;;14.03;;
14768;SDS011;7476;49.404;11.152;2023-03-01T02:02:49;27.07;;;13.87;;
14768;SDS011;7476;49.404;11.152;2023-03-01T02:05:24;24.33;;;12.77;;
14768;SDS011;7476;49.404;11.152;2023-03-01T02:07:55;24.90;;;12.87;;
14768;SDS011;7476;49.404;11.152;2023-03-01T02:10:22;25.00;;;12.67;;
14768;SDS011;7476;49.404;11.152;2023-03-01T02:12:50;23.17;;;13.00;;
14768;SDS011;7476;49.404;11.152;2023-03-01T02:15:17;25.20;;;13.97;;
14768;SDS011;7476;49.404;11.152;2023-03-01T02:17:44;23.57;;;13.10;;
14768;SDS011;7476;49.404;11.152;2023-03-01T02:20:13;24.43;;;13.23;;
14768;SDS011;7476;49.404;11.152;2023-03-01T02:22:47;24.20;;;13.50;;
14768;SDS011;7476;49.404;11.152;2023-03-01T02:28:05;25.20;;;13.97;;
14768;SDS011;7476;49.404;11.152;2023-03-01T02:30:39;22.20;;;12.60;;
14768;SDS011;7476;49.404;11.152;2023-03-01T02:33:27;22.83;;;13.13;;
14768;SDS011;7476;49.404;11.152;2023-03-01T02:35:53;23.47;;;12.63;;
14768;SDS011;7476;49.404;11.152;2023-03-01T02:38:21;24.40;;;13.37;;
14768;SDS011;7476;49.404;11.152;2023-03-01T02:40:49;23.93;;;12.30;;
14768;SDS011;7476;49.404;11.152;2023-03-01T02:43:17;26.27;;;13.23;;
14768;SDS011;7476;49.404;11.152;2023-03-01T02:45:50;27.97;;;13.23;;
14768;SDS011;7476;49.404;11.152;2023-03-01T02:48:18;23.60;;;13.13;;
14768;SDS011;7476;49.404;11.152;2023-03-01T02:50:50;21.87;;;12.67;;
14768;SDS011;7476;49.404;11.152;2023-03-01T02:53:27;24.13;;;13.37;;
14768;SDS011;7476;49.404;11.152;2023-03-01T02:56:02;22.27;;;12.33;;
14768;SDS011;7476;49.404;11.152;2023-03-01T02:58:29;22.47;;;13.20;;
14768;SDS011;7476;49.404;11.152;2023-03-01T03:00:57;23.33;;;12.33;;
14768;SDS011;7476;49.404;11.152;2023-03-01T03:03:25;22.03;;;11.93;;
14768;SDS011;7476;49.404;11.152;2023-03-01T03:05:52;24.30;;;11.40;;
14768;SDS011;7476;49.404;11.152;2023-03-01T03:08:19;23.77;;;12.57;;
14768;SDS011;7476;49.404;11.152;2023-03-01T03:10:48;23.03;;;13.00;;
14768;SDS011;7476;49.404;11.152;2023-03-01T03:13:15;23.17;;;12.37;;
14768;SDS011;7476;49.404;11.152;2023-03-01T03:15:42;20.07;;;11.17;;
14768;SDS011;7476;49.404;11.152;2023-03-01T03:18:11;24.40;;;12.67;;
14768;SDS011;7476;49.404;11.152;2023-03-01T03:20:40;24.50;;;11.87;;
14768;SDS011;7476;49.404;11.152;2023-03-01T03:23:08;20.13;;;11.43;;
14768;SDS011;7476;49.404;11.152;2023-03-01T03:25:35;21.93;;;11.97;;
14768;SDS011;7476;49.404;11.152;2023-03-01T03:28:02;22.47;;;12.03;;
14768;SDS011;7476;49.404;11.152;2023-03-01T03:30:35;23.57;;;12.47;;
14768;SDS011;7476;49.404;11.152;2023-03-01T03:33:04;23.17;;;12.83;;
14768;SDS011;7476;49.404;11.152;2023-03-01T03:35:33;24.30;;;12.53;;
14768;SDS011;7476;49.404;11.152;2023-03-01T03:38:05;21.37;;;12.23;;
14768;SDS011;7476;49.404;11.152;2023-03-01T03:40:41;22.87;;;12.40;;
14768;SDS011;7476;49.404;11.152;2023-03-01T03:43:09;25.37;;;12.43;;
14768;SDS011;7476;49.404;11.152;2023-03-01T03:45:37;21.17;;;12.13;;
14768;SDS011;7476;49.404;11.152;2023-03-01T03:48:06;22.40;;;12.23;;
14768;SDS011;7476;49.404;11.152;2023-03-01T03:50:36;24.07;;;12.67;;
14768;SDS011;7476;49.404;11.152;2023-03-01T03:53:05;26.33;;;12.73;;
14768;SDS011;7476;49.404;11.152;2023-03-01T03:55:33;23.50;;;12.33;;
14768;SDS011;7476;49.404;11.152;2023-03-01T03:58:00;23.43;;;12.53;;
14768;SDS011;7476;49.404;11.152;2023-03-01T04:00:32;29.03;;;13.53;;
14768;SDS011;7476;49.404;11.152;2023-03-01T04:02:59;25.80;;;12.80;;
14768;SDS011;7476;49.404;11.152;2023-03-01T04:05:26;21.87;;;12.83;;
14768;SDS011;7476;49.404;11.152;2023-03-01T04:07:55;24.63;;;13.17;;
14768;SDS011;7476;49.404;11.152;2023-03-01T04:10:33;25.73;;;11.53;;
14768;SDS011;7476;49.404;11.152;2023-03-01T04:13:02;26.60;;;12.63;;
14768;SDS011;7476;49.404;11.152;2023-03-01T04:15:30;23.73;;;12.80;;
14768;SDS011;7476;49.404;11.152;2023-03-01T04:17:58;23.50;;;12.43;;
14768;SDS011;7476;49.404;11.152;2023-03-01T04:20:26;23.93;;;13.23;;
14768;SDS011;7476;49.404;11.152;2023-03-01T04:22:58;25.87;;;13.17;;
14768;SDS011;7476;49.404;11.152;2023-03-01T04:25:35;24.93;;;13.27;;
14768;SDS011;7476;49.404;11.152;2023-03-01T04:28:03;22.47;;;12.87;;
14768;SDS011;7476;49.404;11.152;2023-03-01T04:30:31;24.97;;;13.83;;
14768;SDS011;7476;49.404;11.152;2023-03-01T04:33:00;22.97;;;11.87;;
14768;SDS011;7476;49.404;11.152;2023-03-01T04:35:27;24.60;;;11.97;;
14768;SDS011;7476;49.404;11.152;2023-03-01T04:37:54;22.73;;;11.70;;
14768;SDS011;7476;49.404;11.152;2023-03-01T04:40:22;24.33;;;11.50;;
14768;SDS011;7476;49.404;11.152;2023-03-01T04:42:49;21.43;;;12.17;;
14768;SDS011;7476;49.404;11.152;2023-03-01T04:45:16;22.97;;;12.13;;
14768;SDS011;7476;49.404;11.152;2023-03-01T04:47:44;22.23;;;12.27;;
14768;SDS011;7476;49.404;11.152;2023-03-01T04:50:13;23.20;;;12.13;;
14768;SDS011;7476;49.404;11.152;2023-03-01T04:52:40;19.83;;;11.17;;
14768;SDS011;7476;49.404;11.152;2023-03-01T04:55:08;21.90;;;11.27;;
14768;SDS011;7476;49.404;11.152;2023-03-01T04:57:37;24.23;;;11.83;;
14768;SDS011;7476;49.404;11.152;2023-03-01T05:00:04;19.47;;;11.37;;
14768;SDS011;7476;49.404;11.152;2023-03-01T05:02:45;19.37;;;10.93;;
14768;SDS011;7476;49.404;11.152;2023-03-01T05:05:13;23.93;;;11.97;;
14768;SDS011;7476;49.404;11.152;2023-03-01T05:07:40;20.13;;;11.63;;
14768;SDS011;7476;49.404;11.152;2023-03-01T05:10:07;20.33;;;10.97;;
14768;SDS011;7476;49.404;11.152;2023-03-01T05:12:34;19.27;;;10.77;;
14768;SDS011;7476;49.404;11.152;2023-03-01T05:15:04;18.50;;;10.90;;
14768;SDS011;7476;49.404;11.152;2023-03-01T05:17:32;21.77;;;11.37;;
14768;SDS011;7476;49.404;11.152;2023-03-01T05:19:59;18.63;;;9.67;;
14768;SDS011;7476;49.404;11.152;2023-03-01T05:22:26;21.60;;;10.03;;
14768;SDS011;7476;49.404;11.152;2023-03-01T05:24:52;18.83;;;9.97;;
14768;SDS011;7476;49.404;11.152;2023-03-01T05:27:20;20.00;;;9.40;;
14768;SDS011;7476;49.404;11.152;2023-03-01T05:29:47;18.80;;;10.73;;
14768;SDS011;7476;49.404;11.152;2023-03-01T05:32:15;18.10;;;10.37;;
14768;SDS011;7476;49.404;11.152;2023-03-01T05:34:42;19.27;;;10.60;;
14768;SDS011;7476;49.404;11.152;2023-03-01T05:37:11;22.70;;;11.33;;
14768;SDS011;7476;49.404;11.152;2023-03-01T05:39:38;18.67;;;10.63;;
14768;SDS011;7476;49.404;11.152;2023-03-01T05:42:09;19.73;;;9.97;;
14768;SDS011;7476;49.404;11.152;2023-03-01T05:44:37;20.17;;;10.73;;
14768;SDS011;7476;49.404;11.152;2023-03-01T05:47:04;24.53;;;11.67;;
14768;SDS011;7476;49.404;11.152;2023-03-01T05:49:32;21.00;;;11.57;;
14768;SDS011;7476;49.404;11.152;2023-03-01T05:51:59;16.47;;;9.70;;
14768;SDS011;7476;49.404;11.152;2023-03-01T05:54:26;20.83;;;11.10;;
14768;SDS011;7476;49.404;11.152;2023-03-01T05:56:53;20.53;;;11.27;;
14768;SDS011;7476;49.404;11.152;2023-03-01T05:59:19;26.23;;;13.70;;
14768;SDS011;7476;49.404;11.152;2023-03-01T06:01:46;22.37;;;11.93;;
14768;SDS011;7476;49.404;11.152;2023-03-01T06:04:13;22.87;;;12.67;;
14768;SDS011;7476;49.404;11.152;2023-03-01T06:06:41;25.20;;;11.70;;
14768;SDS011;7476;49.404;11.152;2023-03-01T06:09:07;21.50;;;11.13;;
14768;SDS011;7476;49.404;11.152;2023-03-01T06:11:35;24.17;;;12.37;;
14768;SDS011;7476;49.404;11.152;2023-03-01T06:14:02;21.70;;;11.67;;
14768;SDS011;7476;49.404;11.152;2023-03-01T06:16:29;25.47;;;11.67;;
14768;SDS011;7476;49.404;11.152;2023-03-01T06:18:56;21.90;;;10.73;;
14768;SDS011;7476;49.404;11.152;2023-03-01T06:21:22;21.10;;;11.40;;
14768;SDS011;7476;49.404;11.152;2023-03-01T06:23:50;20.37;;;10.87;;
14768;SDS011;7476;49.404;11.152;2023-03-01T06:26:17;19.27;;;11.00;;
14768;SDS011;7476;49.404;11.152;2023-03-01T06:28:44;22.33;;;11.60;;
14768;SDS011;7476;49.404;11.152;2023-03-01T06:31:11;23.60;;;11.93;;
14768;SDS011;7476;49.404;11.152;2023-03-01T06:33:38;21.13;;;10.47;;
14768;SDS011;7476;49.404;11.152;2023-03-01T06:36:05;23.17;;;11.63;;
14768;SDS011;7476;49.404;11.152;2023-03-01T06:38:32;19.13;;;11.30;;
14768;SDS011;7476;49.404;11.152;2023-03-01T06:41:00;21.50;;;11.53;;
14768;SDS011;7476;49.404;11.152;2023-03-01T06:43:27;24.97;;;13.27;;
14768;SDS011;7476;49.404;11.152;2023-03-01T06:45:54;20.03;;;10.57;;
14768;SDS011;7476;49.404;11.152;2023-03-01T06:48:20;22.70;;;12.30;;
14768;SDS011;7476;49.404;11.152;2023-03-01T06:50:47;20.87;;;11.63;;
14768;SDS011;7476;49.404;11.152;2023-03-01T06:53:14;25.07;;;12.73;;
14768;SDS011;7476;49.404;11.152;2023-03-01T06:55:40;25.20;;;13.17;;
14768;SDS011;7476;49.404;11.152;2023-03-01T06:58:09;27.90;;;13.33;;
14768;SDS011;7476;49.404;11.152;2023-03-01T07:00:36;22.00;;;14.00;;
14768;SDS011;7476;49.404;11.152;2023-03-01T07:03:05;25.87;;;15.13;;
14768;SDS011;7476;49.404;11.152;2023-03-01T07:05:32;22.53;;;14.33;;
14768;SDS011;7476;49.404;11.152;2023-03-01T07:07:59;22.33;;;13.37;;
14768;SDS011;7476;49.404;11.152;2023-03-01T07:10:26;23.00;;;13.30;;
14768;SDS011;7476;49.404;11.152;2023-03-01T07:12:54;21.00;;;12.80;;
14768;SDS011;7476;49.404;11.152;2023-03-01T07:15:23;19.17;;;12.97;;
14768;SDS011;7476;49.404;11.152;2023-03-01T07:17:50;25.13;;;14.60;;
14768;SDS011;7476;49.404;11.152;2023-03-01T07:20:17;21.60;;;13.73;;
14768;SDS011;7476;49.404;11.152;2023-03-01T07:22:47;21.53;;;14.30;;
14768;SDS011;7476;49.404;11.152;2023-03-01T07:25:14;22.97;;;14.20;;
14768;SDS011;7476;49.404;11.152;2023-03-01T07:27:40;20.87;;;14.33;;
14768;SDS011;7476;49.404;11.152;2023-03-01T07:30:08;20.57;;;14.50;;
14768;SDS011;7476;49.404;11.152;2023-03-01T07:32:37;22.33;;;14.40;;
14768;SDS011;7476;49.404;11.152;2023-03-01T07:35:04;23.50;;;15.83;;
14768;SDS011;7476;49.404;11.152;2023-03-01T07:37:31;21.13;;;14.57;;
14768;SDS011;7476;49.404;11.152;2023-03-01T07:39:58;23.30;;;15.10;;
14768;SDS011;7476;49.404;11.152;2023-03-01T07:42:24;21.97;;;14.67;;
14768;SDS011;7476;49.404;11.152;2023-03-01T07:44:51;21.10;;;14.87;;
14768;SDS011;7476;49.404;11.152;2023-03-01T07:47:17;20.60;;;14.43;;
14768;SDS011;7476;49.404;11.152;2023-03-01T07:49:45;20.27;;;13.87;;
14768;SDS011;7476;49.404;11.152;2023-03-01T07:52:12;19.23;;;13.40;;
14768;SDS011;7476;49.404;11.152;2023-03-01T07:54:39;21.93;;;14.77;;
14768;SDS011;7476;49.404;11.152;2023-03-01T07:57:08;19.80;;;14.37;;
14768;SDS011;7476;49.404;11.152;2023-03-01T07:59:35;19.37;;;14.83;;
14768;SDS011;7476;49.404;11.152;2023-03-01T08:02:01;23.17;;;15.27;;
14768;SDS011;7476;49.404;11.152;2023-03-01T08:04:28;19.83;;;14.43;;
14768;SDS011;7476;49.404;11.152;2023-03-01T08:06:56;21.63;;;14.40;;
14768;SDS011;7476;49.404;11.152;2023-03-01T08:09:23;21.00;;;14.00;;
14768;SDS011;7476;49.404;11.152;2023-03-01T08:11:50;19.40;;;13.87;;
14768;SDS011;7476;49.404;11.152;2023-03-01T08:14:17;20.27;;;13.57;;
14768;SDS011;7476;49.404;11.152;2023-03-01T08:16:44;19.20;;;13.67;;
14768;SDS011;7476;49.404;11.152;2023-03-01T08:19:11;19.13;;;13.70;;
14768;SDS011;7476;49.404;11.152;2023-03-01T08:21:38;20.37;;;13.77;;
14768;SDS011;7476;49.404;11.152;2023-03-01T08:24:06;20.27;;;14.03;;
14768;SDS011;7476;49.404;11.152;2023-03-01T08:26:35;19.10;;;13.73;;
14768;SDS011;7476;49.404;11.152;2023-03-01T08:29:03;18.37;;;14.10;;
14768;SDS011;7476;49.404;11.152;2023-03-01T08:31:30;18.80;;;13.47;;
14768;SDS011;7476;49.404;11.152;2023-03-01T08:34:00;17.40;;;13.13;;
14768;SDS011;7476;49.404;11.152;2023-03-01T08:36:29;24.73;;;14.73;;
14768;SDS011;7476;49.404;11.152;2023-03-01T08:38:58;19.53;;;13.33;;
14768;SDS011;7476;49.404;11.152;2023-03-01T08:41:26;19.87;;;13.77;;
14768;SDS011;7476;49.404;11.152;2023-03-01T08:43:54;19.13;;;13.00;;
14768;SDS011;7476;49.404;11.152;2023-03-01T08:46:23;20.90;;;14.13;;
14768;SDS011;7476;49.404;11.152;2023-03-01T08:48:51;18.37;;;13.07;;
14768;SDS011;7476;49.404;11.152;2023-03-01T08:51:18;20.27;;;13.80;;
14768;SDS011;7476;49.404;11.152;2023-03-01T08:53:45;18.57;;;13.17;;
14768;SDS011;7476;49.404;11.152;2023-03-01T08:56:12;19.33;;;13.80;;
14768;SDS011;7476;49.404;11.152;2023-03-01T08:58:43;20.80;;;14.43;;
14768;SDS011;7476;49.404;11.152;2023-03-01T09:01:10;19.03;;;13.73;;
14768;SDS011;7476;49.404;11.152;2023-03-01T09:03:38;20.17;;;13.43;;
14768;SDS011;7476;49.404;11.152;2023-03-01T09:06:05;19.23;;;14.23;;
14768;SDS011;7476;49.404;11.152;2023-03-01T09:08:34;19.80;;;13.97;;
14768;SDS011;7476;49.404;11.152;2023-03-01T09:11:01;20.90;;;14.03;;
14768;SDS011;7476;49.404;11.152;2023-03-01T09:13:28;20.70;;;14.43;;
14768;SDS011;7476;49.404;11.152;2023-03-01T09:15:57;23.33;;;14.57;;
14768;SDS011;7476;49.404;11.152;2023-03-01T09:18:24;24.57;;;14.80;;
14768;SDS011;7476;49.404;11.152;2023-03-01T09:20:51;18.07;;;13.57;;
14768;SDS011;7476;49.404;11.152;2023-03-01T09:23:19;18.10;;;14.00;;
14768;SDS011;7476;49.404;11.152;2023-03-01T09:25:46;19.10;;;14.33;;
14768;SDS011;7476;49.404;11.152;2023-03-01T09:28:13;18.37;;;13.80;;
14768;SDS011;7476;49.404;11.152;2023-03-01T09:30:39;16.50;;;13.60;;
14768;SDS011;7476;49.404;11.152;2023-03-01T09:33:07;19.03;;;14.53;;
14768;SDS011;7476;49.404;11.152;2023-03-01T09:35:39;20.67;;;13.10;;
14768;SDS011;7476;49.404;11.152;2023-03-01T09:38:10;18.30;;;13.70;;
14768;SDS011;7476;49.404;11.152;2023-03-01T09:40:37;18.57;;;13.70;;
14768;SDS011;7476;49.404;11.152;2023-03-01T09:43:12;18.20;;;13.60;;
14768;SDS011;7476;49.404;11.152;2023-03-01T09:45:45;17.07;;;13.53;;
14768;SDS011;7476;49.404;11.152;2023-03-01T09:48:16;18.97;;;13.10;;
14768;SDS011;7476;49.404;11.152;2023-03-01T09:50:47;21.93;;;13.87;;
14768;SDS011;7476;49.404;11.152;2023-03-01T09:53:15;21.73;;;13.83;;
14768;SDS011;7476;49.404;11.152;2023-03-01T09:55:43;16.47;;;12.83;;
14768;SDS011;7476;49.404;11.152;2023-03-01T10:01:06;17.97;;;13.57;;
14768;SDS011;7476;49.404;11.152;2023-03-01T10:03:54;18.00;;;13.80;;
14768;SDS011;7476;49.404;11.152;2023-03-01T10:06:28;18.93;;;13.33;;
14768;SDS011;7476;49.404;11.152;2023-03-01T10:08:55;17.83;;;12.47;;
14768;SDS011;7476;49.404;11.152;2023-03-01T10:11:24;19.87;;;13.93;;
14768;SDS011;7476;49.404;11.152;2023-03-01T10:13:55;20.73;;;12.73;;
14768;SDS011;7476;49.404;11.152;2023-03-01T10:16:28;17.00;;;12.60;;
14768;SDS011;7476;49.404;11.152;2023-03-01T10:19:09;18.27;;;12.57;;
14768;SDS011;7476;49.404;11.152;2023-03-01T10:21:41;18.63;;;12.97;;
14768;SDS011;7476;49.404;11.152;2023-03-01T10:24:12;18.83;;;12.73;;
14768;SDS011;7476;49.404;11.152;2023-03-01T10:26:45;18.77;;;12.93;;
14768;SDS011;7476;49.404;11.152;2023-03-01T10:29:14;19.20;;;13.10;;
14768;SDS011;7476;49.404;11.152;2023-03-01T10:31:42;19.87;;;12.63;;
14768;SDS011;7476;49.404;11.152;2023-03-01T10:34:13;18.10;;;12.30;;
14768;SDS011;7476;49.404;11.152;2023-03-01T10:36:41;17.90;;;13.00;;
14768;SDS011;7476;49.404;11.152;2023-03-01T10:39:12;17.87;;;12.83;;
14768;SDS011;7476;49.404;11.152;2023-03-01T10:41:52;18.50;;;11.93;;
14768;SDS011;7476;49.404;11.152;2023-03-01T10:44:38;17.57;;;12.47;;
14768;SDS011;7476;49.404;11.152;2023-03-01T10:47:12;20.37;;;12.80;;
14768;SDS011;7476;49.404;11.152;2023-03-01T10:49:53;18.23;;;12.90;;
14768;SDS011;7476;49.404;11.152;2023-03-01T10:52:26;18.37;;;12.43;;
14768;SDS011;7476;49.404;11.152;2023-03-01T10:54:55;17.97;;;12.60;;
14768;SDS011;7476;49.404;11.152;2023-03-01T10:57:28;15.40;;;12.20;;
14768;SDS011;7476;49.404;11.152;2023-03-01T11:00:10;18.33;;;13.13;;
14768;SDS011;7476;49.404;11.152;2023-03-01T11:02:51;17.67;;;12.50;;
14768;SDS011;7476;49.404;11.152;2023-03-01T11:05:30;16.67;;;11.80;;
14768;SDS011;7476;49.404;11.152;2023-03-01T11:07:58;18.30;;;12.87;;
14768;SDS011;7476;49.404;11.152;2023-03-01T11:10:27;16.30;;;11.00;;
14768;SDS011;7476;49.404;11.152;2023-03-01T11:13:05;16.37;;;12.03;;
14768;SDS011;7476;49.404;11.152;2023-03-01T11:15:32;17.20;;;11.93;;
14768;SDS011;7476;49.404;11.152;2023-03-01T11:18:00;17.37;;;13.43;;
14768;SDS011;7476;49.404;11.152;2023-03-01T11:20:29;16.40;;;12.33;;
14768;SDS011;7476;49.404;11.152;2023-03-01T11:22:59;14.87;;;12.00;;
14768;SDS011;7476;49.404;11.152;2023-03-01T11:25:31;15.17;;;12.20;;
14768;SDS011;7476;49.404;11.152;2023-03-01T11:28:01;18.50;;;12.97;;
14768;SDS011;7476;49.404;11.152;2023-03-01T11:30:31;17.03;;;11.90;;
14768;SDS011;7476;49.404;11.152;2023-03-01T11:33:04;17.20;;;12.47;;
14768;SDS011;7476;49.404;11.152;2023-03-01T11:35:41;17.13;;;12.07;;
14768;SDS011;7476;49.404;11.152;2023-03-01T11:38:15;16.17;;;12.43;;
14768;SDS011;7476;49.404;11.152;2023-03-01T11:40:47;15.47;;;11.73;;
14768;SDS011;7476;49.404;11.152;2023-03-01T11:43:19;16.07;;;11.97;;
14768;SDS011;7476;49.404;11.152;2023-03-01T11:46:18;17.47;;;12.30;;
14768;SDS011;7476;49.404;11.152;2023-03-01T11:49:06;15.00;;;11.37;;
14768;SDS011;7476;49.404;11.152;2023-03-01T11:51:48;15.73;;;11.37;;
14768;SDS011;7476;49.404;11.152;2023-03-01T11:54:24;16.87;;;11.77;;
14768;SDS011;7476;49.404;11.152;2023-03-01T11:57:00;16.40;;;12.00;;
14768;SDS011;7476;49.404;11.152;2023-03-01T11:59:35;16.73;;;12.07;;
14768;SDS011;7476;49.404;11.152;2023-03-01T12:02:25;14.60;;;11.77;;
14768;SDS011;7476;49.404;11.152;2023-03-01T12:05:37;17.00;;;12.37;;
14768;SDS011;7476;49.404;11.152;2023-03-01T12:08:18;16.67;;;12.43;;
14768;SDS011;7476;49.404;11.152;2023-03-01T12:10:54;17.33;;;13.10;;
14768;SDS011;7476;49.404;11.152;2023-03-01T12:13:33;16.13;;;12.23;;
14768;SDS011;7476;49.404;11.152;2023-03-01T12:16:30;15.53;;;12.27;;
14768;SDS011;7476;49.404;11.152;2023-03-01T12:19:14;14.93;;;11.83;;
14768;SDS011;7476;49.404;11.152;2023-03-01T12:21:55;15.67;;;12.47;;
14768;SDS011;7476;49.404;11.152;2023-03-01T12:24:41;18.33;;;12.87;;
14768;SDS011;7476;49.404;11.152;2023-03-01T12:27:32;15.63;;;11.53;;
14768;SDS011;7476;49.404;11.152;2023-03-01T12:30:18;14.07;;;11.63;;
14768;SDS011;7476;49.404;11.152;2023-03-01T12:32:57;14.63;;;11.40;;
14768;SDS011;7476;49.404;11.152;2023-03-01T12:35:40;15.60;;;11.63;;
14768;SDS011;7476;49.404;11.152;2023-03-01T12:38:20;16.73;;;12.13;;
14768;SDS011;7476;49.404;11.152;2023-03-01T12:41:17;15.67;;;12.50;;
14768;SDS011;7476;49.404;11.152;2023-03-01T12:43:58;16.27;;;12.20;;
14768;SDS011;7476;49.404;11.152;2023-03-01T12:46:33;17.37;;;11.83;;
14768;SDS011;7476;49.404;11.152;2023-03-01T12:49:18;14.67;;;11.23;;
14768;SDS011;7476;49.404;11.152;2023-03-01T12:51:50;14.50;;;11.20;;
14768;SDS011;7476;49.404;11.152;2023-03-01T12:54:22;14.27;;;11.60;;
14768;SDS011;7476;49.404;11.152;2023-03-01T12:56:55;15.53;;;10.63;;
14768;SDS011;7476;49.404;11.152;2023-03-01T12:59:27;13.57;;;11.27;;
14768;SDS011;7476;49.404;11.152;2023-03-01T13:02:02;13.43;;;10.43;;
14768;SDS011;7476;49.404;11.152;2023-03-01T13:04:40;13.57;;;10.67;;
14768;SDS011;7476;49.404;11.152;2023-03-01T13:07:29;14.27;;;10.43;;
14768;SDS011;7476;49.404;11.152;2023-03-01T13:10:09;12.87;;;10.23;;
14768;SDS011;7476;49.404;11.152;2023-03-01T13:12:51;15.50;;;9.70;;
14768;SDS011;7476;49.404;11.152;2023-03-01T13:15:30;15.73;;;10.73;;
14768;SDS011;7476;49.404;11.152;2023-03-01T13:17:59;14.47;;;10.70;;
14768;SDS011;7476;49.404;11.152;2023-03-01T13:20:30;13.17;;;10.10;;
14768;SDS011;7476;49.404;11.152;2023-03-01T13:23:03;14.53;;;11.00;;
14768;SDS011;7476;49.404;11.152;2023-03-01T13:25:33;13.33;;;10.80;;
14768;SDS011;7476;49.404;11.152;2023-03-01T13:37:10;14.23;;;11.37;;
14768;SDS011;7476;49.404;11.152;2023-03-01T13:39:44;13.97;;;11.13;;
14768;SDS011;7476;49.404;11.152;2023-03-01T13:45:05;18.97;;;11.83;;
14768;SDS011;7476;49.404;11.152;2023-03-01T13:47:41;15.13;;;11.50;;
14768;SDS011;7476;49.404;11.152;2023-03-01T13:50:15;14.13;;;11.13;;
14768;SDS011;7476;49.404;11.152;2023-03-01T13:52:45;14.43;;;10.90;;
14768;SDS011;7476;49.404;11.152;2023-03-01T13:55:16;12.40;;;10.37;;
14768;SDS011;7476;49.404;11.152;2023-03-01T13:57:46;14.47;;;11.43;;
14768;SDS011;7476;49.404;11.152;2023-03-01T14:00:28;14.03;;;11.03;;
14768;SDS011;7476;49.404;11.152;2023-03-01T14:03:01;13.93;;;11.20;;
14768;SDS011;7476;49.404;11.152;2023-03-01T14:05:30;15.30;;;10.93;;
14768;SDS011;7476;49.404;11.152;2023-03-01T14:07:56;14.87;;;11.30;;
14768;SDS011;7476;49.404;11.152;2023-03-01T14:10:24;13.47;;;11.03;;
14768;SDS011;7476;49.404;11.152;2023-03-01T14:12:58;14.40;;;11.17;;
14768;SDS011;7476;49.404;11.152;2023-03-01T14:15:34;13.50;;;10.87;;
14768;SDS011;7476;49.404;11.152;2023-03-01T14:18:06;15.40;;;11.43;;
14768;SDS011;7476;49.404;11.152;2023-03-01T14:20:40;14.20;;;11.43;;
14768;SDS011;7476;49.404;11.152;2023-03-01T14:23:11;14.47;;;11.50;;
14768;SDS011;7476;49.404;11.152;2023-03-01T14:25:45;14.03;;;10.87;;
14768;SDS011;7476;49.404;11.152;2023-03-01T14:28:14;13.27;;;10.40;;
14768;SDS011;7476;49.404;11.152;2023-03-01T14:30:45;13.83;;;10.93;;
14768;SDS011;7476;49.404;11.152;2023-03-01T14:33:21;16.50;;;10.77;;
14768;SDS011;7476;49.404;11.152;2023-03-01T14:35:54;16.13;;;10.53;;
14768;SDS011;7476;49.404;11.152;2023-03-01T14:38:22;14.83;;;10.97;;
14768;SDS011;7476;49.404;11.152;2023-03-01T14:40:55;15.00;;;11.10;;
14768;SDS011;7476;49.404;11.152;2023-03-01T14:43:25;12.93;;;10.77;;
14768;SDS011;7476;49.404;11.152;2023-03-01T14:45:53;13.60;;;10.77;;
14768;SDS011;7476;49.404;11.152;2023-03-01T14:48:19;14.87;;;11.30;;
14768;SDS011;7476;49.404;11.152;2023-03-01T14:50:47;14.83;;;10.60;;
14768;SDS011;7476;49.404;11.152;2023-03-01T14:53:16;12.80;;;11.00;;
14768;SDS011;7476;49.404;11.152;2023-03-01T14:55:46;12.97;;;10.60;;
14768;SDS011;7476;49.404;11.152;2023-03-01T14:58:18;14.37;;;10.97;;
14768;SDS011;7476;49.404;11.152;2023-03-01T15:00:47;13.10;;;10.63;;